sensor_id;sensor_type;location;lat;lon;timestamp;pressure;altitude;pressure_sealevel;temperature;humidity
43155;BME280;34212;51.018;13.586;2024-02-26T00:04:19;96562.97;;;5.70;72.96
43155;BME280;34212;51.018;13.586;2024-02-26T00:09:21;96562.81;;;5.71;73.78
43155;BME280;34212;51.018;13.586;2024-02-26T00:14:22;96565.63;;;5.70;73.28
43155;BME280;34212;51.018;13.586;2024-02-26T00:19:24;96564.34;;;5.66;73.18
43155;BME280;34212;51.018;13.586;2024-02-26T00:24:25;96561.41;;;5.61;73.52
43155;BME280;34212;51.018;13.586;2024-02-26T00:29:27;96547.91;;;5.55;73.32
43155;BME280;34212;51.018;13.586;2024-02-26T00:34:28;96556.38;;;5.51;73.46
43155;BME280;34212;51.018;13.586;2024-02-26T00:39:30;96540.03;;;5.47;73.61
43155;BME280;34212;51.018;13.586;2024-02-26T00:44:32;96540.41;;;5.44;73.42
43155;BME280;34212;51.018;13.586;2024-02-26T00:49:33;96534.47;;;5.42;73.79
43155;BME280;34212;51.018;13.586;2024-02-26T00:54:35;96535.47;;;5.41;73.94
43155;BME280;34212;51.018;13.586;2024-02-26T00:59:37;96535.09;;;5.44;74.02
43155;BME280;34212;51.018;13.586;2024-02-26T01:04:38;96522.91;;;5.43;73.74
43155;BME280;34212;51.018;13.586;2024-02-26T01:09:40;96511.03;;;5.39;73.73
43155;BME280;34212;51.018;13.586;2024-02-26T01:14:41;96515.50;;;5.39;73.48
43155;BME280;34212;51.018;13.586;2024-02-26T01:19:43;96506.56;;;5.40;73.62
43155;BME280;34212;51.018;13.586;2024-02-26T01:24:45;96499.25;;;5.42;73.86
43155;BME280;34212;51.018;13.586;2024-02-26T01:29:46;96496.47;;;5.43;73.76
43155;BME280;34212;51.018;13.586;2024-02-26T01:34:48;96496.47;;;5.43;74.15
43155;BME280;34212;51.018;13.586;2024-02-26T01:39:49;96487.88;;;5.41;74.14
43155;BME280;34212;51.018;13.586;2024-02-26T01:44:51;96487.06;;;5.41;74.18
43155;BME280;34212;51.018;13.586;2024-02-26T01:49:52;96475.66;;;5.40;74.03
43155;BME280;34212;51.018;13.586;2024-02-26T01:54:54;96474.03;;;5.39;74.58
43155;BME280;34212;51.018;13.586;2024-02-26T01:59:56;96467.06;;;5.38;74.68
43155;BME280;34212;51.018;13.586;2024-02-26T02:04:58;96468.75;;;5.39;74.77
43155;BME280;34212;51.018;13.586;2024-02-26T02:10:00;96460.97;;;5.38;74.33
43155;BME280;34212;51.018;13.586;2024-02-26T02:15:01;96456.88;;;5.35;74.36
43155;BME280;34212;51.018;13.586;2024-02-26T02:20:04;96449.13;;;5.33;74.69
43155;BME280;34212;51.018;13.586;2024-02-26T02:25:09;96451.94;;;5.32;74.64
43155;BME280;34212;51.018;13.586;2024-02-26T02:30:11;96448.66;;;5.30;75.09
43155;BME280;34212;51.018;13.586;2024-02-26T02:35:12;96455.31;;;5.26;74.85
43155;BME280;34212;51.018;13.586;2024-02-26T02:40:14;96441.63;;;5.22;75.39
43155;BME280;34212;51.018;13.586;2024-02-26T02:45:16;96454.22;;;5.20;75.51
43155;BME280;34212;51.018;13.586;2024-02-26T02:50:17;96448.09;;;5.20;75.30
43155;BME280;34212;51.018;13.586;2024-02-26T02:55:19;96452.56;;;5.19;75.71
43155;BME280;34212;51.018;13.586;2024-02-26T03:00:21;96456.84;;;5.20;75.23
43155;BME280;34212;51.018;13.586;2024-02-26T03:05:24;96458.31;;;5.23;75.34
43155;BME280;34212;51.018;13.586;2024-02-26T03:10:26;96464.59;;;5.22;75.57
43155;BME280;34212;51.018;13.586;2024-02-26T03:15:27;96458.31;;;5.23;75.35
43155;BME280;34212;51.018;13.586;2024-02-26T03:20:29;96458.13;;;5.24;75.56
43155;BME280;34212;51.018;13.586;2024-02-26T03:25:30;96470.53;;;5.24;75.51
43155;BME280;34212;51.018;13.586;2024-02-26T03:30:32;96471.34;;;5.24;75.65
43155;BME280;34212;51.018;13.586;2024-02-26T03:35:33;96471.50;;;5.23;75.84
43155;BME280;34212;51.018;13.586;2024-02-26T03:40:35;96472.53;;;5.22;75.44
43155;BME280;34212;51.018;13.586;2024-02-26T03:45:36;96479.81;;;5.20;75.57
43155;BME280;34212;51.018;13.586;2024-02-26T03:50:38;96476.34;;;5.19;75.28
43155;BME280;34212;51.018;13.586;2024-02-26T03:55:39;96480.66;;;5.20;75.51
43155;BME280;34212;51.018;13.586;2024-02-26T04:00:43;96477.50;;;5.17;75.57
43155;BME280;34212;51.018;13.586;2024-02-26T04:05:45;96492.56;;;5.16;75.70
43155;BME280;34212;51.018;13.586;2024-02-26T04:10:47;96490.09;;;5.15;76.04
43155;BME280;34212;51.018;13.586;2024-02-26T04:15:48;96490.63;;;5.10;75.54
43155;BME280;34212;51.018;13.586;2024-02-26T04:20:50;96497.06;;;5.07;75.95
43155;BME280;34212;51.018;13.586;2024-02-26T04:25:52;96490.50;;;5.03;75.72
43155;BME280;34212;51.018;13.586;2024-02-26T04:30:57;96484.41;;;5.03;75.98
43155;BME280;34212;51.018;13.586;2024-02-26T04:35:58;96486.25;;;5.02;76.12
43155;BME280;34212;51.018;13.586;2024-02-26T04:41:00;96486.59;;;4.99;76.37
43155;BME280;34212;51.018;13.586;2024-02-26T04:46:02;96491.06;;;4.99;76.33
43155;BME280;34212;51.018;13.586;2024-02-26T04:51:03;96483.94;;;4.99;76.22
43155;BME280;34212;51.018;13.586;2024-02-26T04:56:05;96491.69;;;5.01;76.29
43155;BME280;34212;51.018;13.586;2024-02-26T05:01:07;96495.13;;;5.01;76.65
43155;BME280;34212;51.018;13.586;2024-02-26T05:06:11;96500.06;;;5.04;76.37
43155;BME280;34212;51.018;13.586;2024-02-26T05:11:13;96495.63;;;5.05;76.30
43155;BME280;34212;51.018;13.586;2024-02-26T05:16:14;96501.91;;;5.04;76.22
43155;BME280;34212;51.018;13.586;2024-02-26T05:21:16;96512.00;;;5.00;76.41
43155;BME280;34212;51.018;13.586;2024-02-26T05:26:21;96508.72;;;4.98;76.63
43155;BME280;34212;51.018;13.586;2024-02-26T05:31:23;96525.75;;;4.96;76.58
43155;BME280;34212;51.018;13.586;2024-02-26T05:36:24;96533.03;;;4.94;76.97
43155;BME280;34212;51.018;13.586;2024-02-26T05:41:27;96531.19;;;4.94;77.02
43155;BME280;34212;51.018;13.586;2024-02-26T05:46:28;96542.44;;;4.96;76.66
43155;BME280;34212;51.018;13.586;2024-02-26T05:51:30;96537.97;;;4.97;77.15
43155;BME280;34212;51.018;13.586;2024-02-26T05:56:31;96537.31;;;4.95;77.14
43155;BME280;34212;51.018;13.586;2024-02-26T06:01:33;96540.75;;;4.95;76.87
43155;BME280;34212;51.018;13.586;2024-02-26T06:06:35;96537.97;;;4.97;76.63
43155;BME280;34212;51.018;13.586;2024-02-26T06:11:39;96529.84;;;4.98;77.09
43155;BME280;34212;51.018;13.586;2024-02-26T06:16:40;96542.69;;;5.01;77.37
43155;BME280;34212;51.018;13.586;2024-02-26T06:21:42;96540.22;;;5.08;77.13
43155;BME280;34212;51.018;13.586;2024-02-26T06:26:43;96543.22;;;5.20;77.50
43155;BME280;34212;51.018;13.586;2024-02-26T06:31:45;96542.63;;;5.32;77.85
43155;BME280;34212;51.018;13.586;2024-02-26T06:36:46;96547.72;;;5.42;77.72
43155;BME280;34212;51.018;13.586;2024-02-26T06:41:48;96544.50;;;5.47;77.44
43155;BME280;34212;51.018;13.586;2024-02-26T06:46:50;96539.31;;;5.53;77.84
43155;BME280;34212;51.018;13.586;2024-02-26T06:51:51;96538.59;;;5.60;77.84
43155;BME280;34212;51.018;13.586;2024-02-26T06:56:53;96533.88;;;5.70;78.14
43155;BME280;34212;51.018;13.586;2024-02-26T07:01:54;96531.97;;;5.78;77.83
43155;BME280;34212;51.018;13.586;2024-02-26T07:06:56;96539.66;;;5.88;78.11
43155;BME280;34212;51.018;13.586;2024-02-26T07:11:58;96544.53;;;5.99;78.13
43155;BME280;34212;51.018;13.586;2024-02-26T07:17:02;96542.44;;;6.10;78.18
43155;BME280;34212;51.018;13.586;2024-02-26T07:22:04;96538.88;;;6.17;78.37
43155;BME280;34212;51.018;13.586;2024-02-26T07:27:05;96543.81;;;6.20;78.47
43155;BME280;34212;51.018;13.586;2024-02-26T07:32:07;96543.63;;;6.22;78.34
43155;BME280;34212;51.018;13.586;2024-02-26T07:37:08;96547.09;;;6.22;78.38
43155;BME280;34212;51.018;13.586;2024-02-26T07:42:10;96549.81;;;6.29;78.45
43155;BME280;34212;51.018;13.586;2024-02-26T07:47:12;96547.09;;;6.37;78.93
43155;BME280;34212;51.018;13.586;2024-02-26T07:52:13;96554.13;;;6.45;78.76
43155;BME280;34212;51.018;13.586;2024-02-26T07:57:14;96555.03;;;6.52;79.21
43155;BME280;34212;51.018;13.586;2024-02-26T08:02:18;96553.25;;;6.59;79.42
43155;BME280;34212;51.018;13.586;2024-02-26T08:07:20;96549.69;;;6.67;79.04
43155;BME280;34212;51.018;13.586;2024-02-26T08:12:22;96563.84;;;6.74;79.53
43155;BME280;34212;51.018;13.586;2024-02-26T08:17:24;96566.75;;;6.79;79.80
43155;BME280;34212;51.018;13.586;2024-02-26T08:22:26;96563.16;;;6.87;79.64
43155;BME280;34212;51.018;13.586;2024-02-26T08:27:27;96570.81;;;6.97;80.02
43155;BME280;34212;51.018;13.586;2024-02-26T08:32:29;96571.31;;;7.07;80.17
43155;BME280;34212;51.018;13.586;2024-02-26T08:37:30;96570.84;;;7.18;80.16
43155;BME280;34212;51.018;13.586;2024-02-26T08:42:32;96571.34;;;7.28;80.12
43155;BME280;34212;51.018;13.586;2024-02-26T08:47:33;96572.69;;;7.39;80.33
43155;BME280;34212;51.018;13.586;2024-02-26T08:52:35;96578.47;;;7.49;79.55
43155;BME280;34212;51.018;13.586;2024-02-26T08:57:37;96581.84;;;7.58;80.23
43155;BME280;34212;51.018;13.586;2024-02-26T09:02:39;96582.31;;;7.68;79.83
43155;BME280;34212;51.018;13.586;2024-02-26T09:07:41;96576.69;;;7.78;80.37
43155;BME280;34212;51.018;13.586;2024-02-26T09:12:43;96571.03;;;7.87;80.41
43155;BME280;34212;51.018;13.586;2024-02-26T09:17:44;96571.53;;;7.98;80.58
43155;BME280;34212;51.018;13.586;2024-02-26T09:22:47;96575.31;;;8.10;80.69
43155;BME280;34212;51.018;13.586;2024-02-26T09:27:49;96586.81;;;8.24;80.26
43155;BME280;34212;51.018;13.586;2024-02-26T09:32:51;96577.28;;;8.36;80.50
43155;BME280;34212;51.018;13.586;2024-02-26T09:37:53;96591.47;;;8.50;80.99
43155;BME280;34212;51.018;13.586;2024-02-26T09:42:59;96589.53;;;8.65;80.79
43155;BME280;34212;51.018;13.586;2024-02-26T09:48:04;96595.34;;;8.82;80.78
43155;BME280;34212;51.018;13.586;2024-02-26T09:53:08;96594.16;;;8.98;80.74
43155;BME280;34212;51.018;13.586;2024-02-26T09:58:11;96599.53;;;9.11;80.68
43155;BME280;34212;51.018;13.586;2024-02-26T10:03:21;96605.28;;;9.28;80.34
43155;BME280;34212;51.018;13.586;2024-02-26T10:08:23;96618.66;;;9.41;80.13
43155;BME280;34212;51.018;13.586;2024-02-26T10:13:25;96608.84;;;9.55;80.23
43155;BME280;34212;51.018;13.586;2024-02-26T10:18:26;96614.38;;;9.67;80.10
43155;BME280;34212;51.018;13.586;2024-02-26T10:23:29;96615.59;;;9.78;79.78
43155;BME280;34212;51.018;13.586;2024-02-26T10:28:31;96607.44;;;9.86;79.21
43155;BME280;34212;51.018;13.586;2024-02-26T10:33:33;96604.78;;;9.92;78.96
43155;BME280;34212;51.018;13.586;2024-02-26T10:38:40;96619.31;;;9.97;78.21
43155;BME280;34212;51.018;13.586;2024-02-26T10:43:42;96608.06;;;10.01;78.38
43155;BME280;34212;51.018;13.586;2024-02-26T10:48:51;96612.75;;;10.06;78.20
43155;BME280;34212;51.018;13.586;2024-02-26T10:53:56;96612.78;;;10.12;78.17
43155;BME280;34212;51.018;13.586;2024-02-26T10:59:03;96612.94;;;10.17;78.32
43155;BME280;34212;51.018;13.586;2024-02-26T11:04:05;96612.34;;;10.22;78.64
43155;BME280;34212;51.018;13.586;2024-02-26T11:09:11;96619.31;;;10.30;78.14
43155;BME280;34212;51.018;13.586;2024-02-26T11:14:15;96621.38;;;10.41;78.33
43155;BME280;34212;51.018;13.586;2024-02-26T11:19:18;96611.09;;;10.51;78.24
43155;BME280;34212;51.018;13.586;2024-02-26T11:24:19;96605.13;;;10.56;77.52
43155;BME280;34212;51.018;13.586;2024-02-26T11:29:22;96612.72;;;10.66;77.43
43155;BME280;34212;51.018;13.586;2024-02-26T11:34:24;96608.56;;;10.76;77.56
43155;BME280;34212;51.018;13.586;2024-02-26T11:39:26;96602.38;;;10.89;77.97
43155;BME280;34212;51.018;13.586;2024-02-26T11:44:29;96612.00;;;10.97;77.37
43155;BME280;34212;51.018;13.586;2024-02-26T11:49:31;96610.50;;;11.07;77.51
43155;BME280;34212;51.018;13.586;2024-02-26T11:59:48;96608.75;;;11.26;76.41
43155;BME280;34212;51.018;13.586;2024-02-26T12:04:51;96608.31;;;11.36;77.15
43155;BME280;34212;51.018;13.586;2024-02-26T12:10:14;96618.56;;;11.39;75.93
43155;BME280;34212;51.018;13.586;2024-02-26T12:15:16;96635.34;;;11.46;76.49
43155;BME280;34212;51.018;13.586;2024-02-26T12:20:21;96637.16;;;11.59;75.80
43155;BME280;34212;51.018;13.586;2024-02-26T12:25:27;96629.25;;;11.71;75.40
43155;BME280;34212;51.018;13.586;2024-02-26T12:30:30;96634.56;;;11.77;74.89
43155;BME280;34212;51.018;13.586;2024-02-26T12:35:35;96631.84;;;11.84;74.96
43155;BME280;34212;51.018;13.586;2024-02-26T12:40:36;96632.25;;;11.88;74.92
43155;BME280;34212;51.018;13.586;2024-02-26T12:45:42;96623.56;;;11.92;74.50
43155;BME280;34212;51.018;13.586;2024-02-26T12:50:46;96631.38;;;11.94;74.71
43155;BME280;34212;51.018;13.586;2024-02-26T12:55:51;96627.66;;;11.95;75.05
43155;BME280;34212;51.018;13.586;2024-02-26T13:00:55;96626.63;;;11.96;74.54
43155;BME280;34212;51.018;13.586;2024-02-26T13:05:57;96637.72;;;11.99;74.56
43155;BME280;34212;51.018;13.586;2024-02-26T13:10:59;96638.31;;;12.01;74.00
43155;BME280;34212;51.018;13.586;2024-02-26T13:16:10;96640.53;;;12.05;73.49
43155;BME280;34212;51.018;13.586;2024-02-26T13:21:15;96648.75;;;12.10;73.71
43155;BME280;34212;51.018;13.586;2024-02-26T13:26:22;96654.66;;;12.12;73.48
43155;BME280;34212;51.018;13.586;2024-02-26T13:31:24;96656.75;;;12.10;73.16
43155;BME280;34212;51.018;13.586;2024-02-26T13:36:26;96665.84;;;12.02;72.66
43155;BME280;34212;51.018;13.586;2024-02-26T13:41:28;96663.22;;;11.95;72.64
43155;BME280;34212;51.018;13.586;2024-02-26T13:46:30;96671.66;;;11.92;72.80
43155;BME280;34212;51.018;13.586;2024-02-26T13:51:32;96675.81;;;11.88;72.54
43155;BME280;34212;51.018;13.586;2024-02-26T13:56:36;96684.03;;;11.80;72.09
43155;BME280;34212;51.018;13.586;2024-02-26T14:01:38;96687.56;;;11.74;72.19
43155;BME280;34212;51.018;13.586;2024-02-26T14:06:40;96684.50;;;11.70;71.97
43155;BME280;34212;51.018;13.586;2024-02-26T14:11:42;96690.28;;;11.67;72.00
43155;BME280;34212;51.018;13.586;2024-02-26T14:16:43;96707.53;;;11.65;72.06
43155;BME280;34212;51.018;13.586;2024-02-26T14:21:45;96704.28;;;11.63;71.75
43155;BME280;34212;51.018;13.586;2024-02-26T14:26:46;96705.91;;;11.64;71.84
43155;BME280;34212;51.018;13.586;2024-02-26T14:31:48;96717.63;;;11.63;71.84
43155;BME280;34212;51.018;13.586;2024-02-26T14:36:50;96725.66;;;11.63;72.09
43155;BME280;34212;51.018;13.586;2024-02-26T14:41:51;96739.00;;;11.63;72.15
43155;BME280;34212;51.018;13.586;2024-02-26T14:46:56;96759.75;;;11.61;72.11
43155;BME280;34212;51.018;13.586;2024-02-26T14:51:58;96763.47;;;11.60;72.26
43155;BME280;34212;51.018;13.586;2024-02-26T14:56:59;96767.13;;;11.59;72.69
43155;BME280;34212;51.018;13.586;2024-02-26T15:02:01;96766.31;;;11.58;72.73
43155;BME280;34212;51.018;13.586;2024-02-26T15:07:03;96749.50;;;11.57;72.58
43155;BME280;34212;51.018;13.586;2024-02-26T15:12:05;96749.09;;;11.54;73.35
43155;BME280;34212;51.018;13.586;2024-02-26T15:17:08;96756.09;;;11.48;74.34
43155;BME280;34212;51.018;13.586;2024-02-26T15:22:12;96771.72;;;11.45;74.34
43155;BME280;34212;51.018;13.586;2024-02-26T15:27:13;96766.00;;;11.41;73.94
43155;BME280;34212;51.018;13.586;2024-02-26T15:32:16;96768.44;;;11.36;73.63
43155;BME280;34212;51.018;13.586;2024-02-26T15:37:17;96768.47;;;11.29;73.49
43155;BME280;34212;51.018;13.586;2024-02-26T15:42:19;96781.84;;;11.23;73.70
43155;BME280;34212;51.018;13.586;2024-02-26T15:47:21;96789.88;;;11.16;73.48
43155;BME280;34212;51.018;13.586;2024-02-26T15:52:22;96791.09;;;11.14;73.40
43155;BME280;34212;51.018;13.586;2024-02-26T15:57:24;96789.47;;;11.13;73.75
43155;BME280;34212;51.018;13.586;2024-02-26T16:02:26;96788.66;;;11.12;73.84
43155;BME280;34212;51.018;13.586;2024-02-26T16:07:32;96791.13;;;11.07;73.70
43155;BME280;34212;51.018;13.586;2024-02-26T16:12:39;96792.13;;;10.99;73.99
43155;BME280;34212;51.018;13.586;2024-02-26T16:17:45;96802.00;;;10.92;73.83
43155;BME280;34212;51.018;13.586;2024-02-26T16:22:50;96812.69;;;10.85;73.97
43155;BME280;34212;51.018;13.586;2024-02-26T16:27:52;96813.72;;;10.78;73.90
43155;BME280;34212;51.018;13.586;2024-02-26T16:32:54;96829.91;;;10.70;73.93
43155;BME280;34212;51.018;13.586;2024-02-26T16:37:55;96837.91;;;10.63;74.29
43155;BME280;34212;51.018;13.586;2024-02-26T16:42:57;96846.91;;;10.55;74.10
43155;BME280;34212;51.018;13.586;2024-02-26T16:47:58;96852.63;;;10.52;74.52
43155;BME280;34212;51.018;13.586;2024-02-26T16:53:00;96853.66;;;10.51;74.34
43155;BME280;34212;51.018;13.586;2024-02-26T16:58:02;96859.19;;;10.43;74.14
43155;BME280;34212;51.018;13.586;2024-02-26T17:03:03;96869.84;;;10.36;74.59
43155;BME280;34212;51.018;13.586;2024-02-26T17:08:05;96885.41;;;10.33;74.64
43155;BME280;34212;51.018;13.586;2024-02-26T17:13:08;96900.97;;;10.29;74.30
43155;BME280;34212;51.018;13.586;2024-02-26T17:18:09;96892.34;;;10.27;74.30
43155;BME280;34212;51.018;13.586;2024-02-26T17:23:14;96902.19;;;10.27;74.47
43155;BME280;34212;51.018;13.586;2024-02-26T17:28:16;96909.38;;;10.26;74.07
43155;BME280;34212;51.018;13.586;2024-02-26T17:33:19;96907.06;;;10.23;74.27
43155;BME280;34212;51.018;13.586;2024-02-26T17:38:21;96925.72;;;10.23;74.81
43155;BME280;34212;51.018;13.586;2024-02-26T17:43:22;96915.66;;;10.18;74.51
43155;BME280;34212;51.018;13.586;2024-02-26T17:48:24;96919.75;;;10.14;75.09
43155;BME280;34212;51.018;13.586;2024-02-26T17:53:29;96931.44;;;10.13;75.06
43155;BME280;34212;51.018;13.586;2024-02-26T17:58:31;96923.44;;;10.13;75.10
43155;BME280;34212;51.018;13.586;2024-02-26T18:03:32;96933.06;;;10.14;75.08
43155;BME280;34212;51.018;13.586;2024-02-26T18:08:34;96935.72;;;10.14;74.90
43155;BME280;34212;51.018;13.586;2024-02-26T18:13:35;96941.44;;;10.11;74.83
43155;BME280;34212;51.018;13.586;2024-02-26T18:18:40;96936.53;;;10.08;74.67
43155;BME280;34212;51.018;13.586;2024-02-26T18:23:47;96935.91;;;10.06;74.56
43155;BME280;34212;51.018;13.586;2024-02-26T18:28:49;96938.56;;;10.06;75.16
43155;BME280;34212;51.018;13.586;2024-02-26T18:33:52;96944.31;;;10.03;75.30
43155;BME280;34212;51.018;13.586;2024-02-26T18:38:54;96955.78;;;10.04;75.36
43155;BME280;34212;51.018;13.586;2024-02-26T18:43:55;96955.13;;;10.02;74.80
43155;BME280;34212;51.018;13.586;2024-02-26T18:49:46;96952.84;;;9.92;75.07
43155;BME280;34212;51.018;13.586;2024-02-26T18:54:48;96958.53;;;9.82;74.61
43155;BME280;34212;51.018;13.586;2024-02-26T18:59:49;96963.13;;;9.67;74.66
43155;BME280;34212;51.018;13.586;2024-02-26T19:04:51;96970.38;;;9.52;75.09
43155;BME280;34212;51.018;13.586;2024-02-26T19:09:53;96970.47;;;9.37;74.60
43155;BME280;34212;51.018;13.586;2024-02-26T19:14:55;96966.69;;;9.24;74.95
43155;BME280;34212;51.018;13.586;2024-02-26T19:19:56;96958.41;;;9.13;74.64
43155;BME280;34212;51.018;13.586;2024-02-26T19:24:58;96967.16;;;9.07;74.71
43155;BME280;34212;51.018;13.586;2024-02-26T19:30:00;96976.72;;;9.01;75.42
43155;BME280;34212;51.018;13.586;2024-02-26T19:35:01;96972.97;;;8.95;74.65
43155;BME280;34212;51.018;13.586;2024-02-26T19:40:03;96976.00;;;8.92;75.48
43155;BME280;34212;51.018;13.586;2024-02-26T19:45:06;96983.56;;;8.89;75.39
43155;BME280;34212;51.018;13.586;2024-02-26T19:50:10;96988.59;;;8.84;75.62
43155;BME280;34212;51.018;13.586;2024-02-26T19:55:15;96996.50;;;8.77;75.09
43155;BME280;34212;51.018;13.586;2024-02-26T20:00:17;96997.47;;;8.69;75.41
43155;BME280;34212;51.018;13.586;2024-02-26T20:05:19;97009.84;;;8.62;75.20
43155;BME280;34212;51.018;13.586;2024-02-26T20:10:21;97024.06;;;8.54;75.88
43155;BME280;34212;51.018;13.586;2024-02-26T20:15:23;97033.31;;;8.44;75.56
43155;BME280;34212;51.018;13.586;2024-02-26T20:20:25;97045.03;;;8.34;75.55
43155;BME280;34212;51.018;13.586;2024-02-26T20:25:30;97057.13;;;8.22;75.25
43155;BME280;34212;51.018;13.586;2024-02-26T20:30:31;97062.69;;;8.13;75.83
43155;BME280;34212;51.018;13.586;2024-02-26T20:35:34;97058.31;;;8.05;75.81
43155;BME280;34212;51.018;13.586;2024-02-26T20:40:35;97065.38;;;7.98;75.92
43155;BME280;34212;51.018;13.586;2024-02-26T20:45:37;97078.00;;;7.96;75.66
43155;BME280;34212;51.018;13.586;2024-02-26T20:50:40;97079.63;;;7.97;75.80
43155;BME280;34212;51.018;13.586;2024-02-26T20:55:41;97081.84;;;8.08;76.32
43155;BME280;34212;51.018;13.586;2024-02-26T21:00:46;97090.28;;;8.12;76.05
43155;BME280;34212;51.018;13.586;2024-02-26T21:05:48;97098.72;;;8.15;76.33
43155;BME280;34212;51.018;13.586;2024-02-26T21:10:49;97093.03;;;8.18;76.04
43155;BME280;34212;51.018;13.586;2024-02-26T21:15:52;97099.97;;;8.19;76.29
43155;BME280;34212;51.018;13.586;2024-02-26T21:20:54;97114.22;;;8.26;76.58
43155;BME280;34212;51.018;13.586;2024-02-26T21:25:58;97104.84;;;8.30;75.81
43155;BME280;34212;51.018;13.586;2024-02-26T21:31:00;97103.59;;;8.26;76.09
43155;BME280;34212;51.018;13.586;2024-02-26T21:36:01;97102.94;;;8.24;76.66
43155;BME280;34212;51.018;13.586;2024-02-26T21:41:03;97100.63;;;8.21;76.12
43155;BME280;34212;51.018;13.586;2024-02-26T21:46:05;97107.78;;;8.21;76.66
43155;BME280;34212;51.018;13.586;2024-02-26T21:51:07;97120.25;;;8.20;76.41
43155;BME280;34212;51.018;13.586;2024-02-26T21:56:09;97134.34;;;8.21;77.23
43155;BME280;34212;51.018;13.586;2024-02-26T22:01:10;97145.44;;;8.24;76.89
43155;BME280;34212;51.018;13.586;2024-02-26T22:06:12;97143.78;;;8.23;77.80
43155;BME280;34212;51.018;13.586;2024-02-26T22:11:14;97150.75;;;8.24;77.17
43155;BME280;34212;51.018;13.586;2024-02-26T22:16:15;97146.09;;;8.26;77.94
43155;BME280;34212;51.018;13.586;2024-02-26T22:21:17;97147.72;;;8.27;77.08
43155;BME280;34212;51.018;13.586;2024-02-26T22:26:19;97152.38;;;8.25;77.71
43155;BME280;34212;51.018;13.586;2024-02-26T22:31:20;97158.06;;;8.22;77.44
43155;BME280;34212;51.018;13.586;2024-02-26T22:36:23;97163.91;;;8.18;77.57
43155;BME280;34212;51.018;13.586;2024-02-26T22:41:24;97146.72;;;8.14;77.93
43155;BME280;34212;51.018;13.586;2024-02-26T22:46:26;97153.38;;;8.09;77.67
43155;BME280;34212;51.018;13.586;2024-02-26T22:51:27;97155.56;;;8.06;77.93
43155;BME280;34212;51.018;13.586;2024-02-26T22:56:29;97173.69;;;8.02;77.87
43155;BME280;34212;51.018;13.586;2024-02-26T23:01:31;97158.56;;;8.03;78.08
43155;BME280;34212;51.018;13.586;2024-02-26T23:06:33;97168.22;;;8.04;77.53
43155;BME280;34212;51.018;13.586;2024-02-26T23:11:35;97183.94;;;8.05;77.85
43155;BME280;34212;51.018;13.586;2024-02-26T23:16:37;97178.28;;;8.08;77.61
43155;BME280;34212;51.018;13.586;2024-02-26T23:21:39;97190.53;;;8.09;77.36
43155;BME280;34212;51.018;13.586;2024-02-26T23:26:43;97187.72;;;8.11;77.71
43155;BME280;34212;51.018;13.586;2024-02-26T23:31:44;97185.88;;;8.12;77.99
43155;BME280;34212;51.018;13.586;2024-02-26T23:36:46;97192.31;;;8.17;77.90
43155;BME280;34212;51.018;13.586;2024-02-26T23:41:47;97198.75;;;8.23;77.90
43155;BME280;34212;51.018;13.586;2024-02-26T23:46:49;97192.88;;;8.27;78.24
43155;BME280;34212;51.018;13.586;2024-02-26T23:51:50;97196.81;;;8.31;78.53
43155;BME280;34212;51.018;13.586;2024-02-26T23:56:52;97201.78;;;8.34;78.01
